Time;durP1;ratioP1;P1;durP2;ratioP2;P2;SDS_P1;SDS_P2;PMS_P1;PMS_P2;Temp;Humidity;BMP_temperature;BMP_pressure;BME280_temperature;BME280_humidity;BME280_pressure;Samples;Min_cycle;Max_cycle;Signal;HPM_P1;HPM_P2
2022/06/24 00:00:04;;;;;;;1.33;0.73;;;16.40;99.90;;;;;;5044362;28;20563;-73
2022/06/24 00:02:31;;;;;;;0.77;0.60;;;16.40;99.90;;;;;;5059552;28;20084;-73
2022/06/24 00:05:01;;;;;;;0.82;0.80;;;16.40;99.90;;;;;;5041871;28;20110;-73
2022/06/24 00:07:28;;;;;;;1.58;0.90;;;16.40;99.90;;;;;;5042847;28;20060;-73
2022/06/24 00:09:54;;;;;;;1.63;0.80;;;16.30;99.90;;;;;;5043883;28;20127;-74
2022/06/24 00:12:24;;;;;;;0.80;0.60;;;16.30;99.90;;;;;;5043586;28;20578;-74
2022/06/24 00:14:58;;;;;;;1.25;0.80;;;16.30;99.90;;;;;;5041633;28;20099;-73
2022/06/24 00:17:29;;;;;;;1.30;0.77;;;16.20;99.90;;;;;;5042055;28;20053;-73
2022/06/24 00:20:04;;;;;;;0.93;0.80;;;16.20;99.90;;;;;;5041966;28;20049;-74
2022/06/24 00:22:32;;;;;;;1.50;1.05;;;16.20;99.90;;;;;;5041303;28;20088;-74
2022/06/24 00:25:29;;;;;;;1.00;0.90;;;16.10;99.90;;;;;;5042316;28;20139;-73
2022/06/24 00:28:00;;;;;;;1.42;1.00;;;16.10;99.90;;;;;;5033857;28;20081;-74
2022/06/24 00:30:27;;;;;;;1.10;0.90;;;16.10;99.90;;;;;;5042365;28;20084;-73
2022/06/24 00:33:15;;;;;;;2.33;1.38;;;16.10;99.90;;;;;;5041690;28;20122;-74
2022/06/24 00:35:49;;;;;;;1.38;1.02;;;16.00;99.90;;;;;;5041262;28;20041;-74
2022/06/24 00:38:29;;;;;;;1.73;1.25;;;16.00;99.90;;;;;;5042008;28;20073;-74
2022/06/24 00:41:10;;;;;;;1.80;1.20;;;16.00;99.90;;;;;;5042163;28;20049;-74
2022/06/24 00:43:37;;;;;;;2.08;1.25;;;15.90;99.90;;;;;;5042428;28;20131;-74
2022/06/24 00:46:23;;;;;;;1.85;1.20;;;15.90;99.90;;;;;;5041922;28;20045;-74
2022/06/24 00:48:51;;;;;;;2.95;1.33;;;15.90;99.90;;;;;;5042190;28;20052;-74
2022/06/24 00:51:19;;;;;;;2.30;1.50;;;15.80;99.90;;;;;;5024897;28;20136;-75
2022/06/24 00:53:48;;;;;;;2.08;1.50;;;15.80;99.90;;;;;;5041520;28;20064;-74
2022/06/24 00:56:17;;;;;;;1.92;1.33;;;15.80;99.90;;;;;;5042534;28;20151;-74
2022/06/24 00:58:54;;;;;;;1.55;1.17;;;15.80;99.90;;;;;;5042235;28;20350;-74
2022/06/24 01:01:28;;;;;;;2.47;1.30;;;15.70;99.90;;;;;;5041747;28;20131;-74
2022/06/24 01:03:56;;;;;;;3.50;1.60;;;15.70;99.90;;;;;;5040327;28;20057;-74
2022/06/24 01:06:24;;;;;;;1.88;1.40;;;15.70;99.90;;;;;;5040882;28;20132;-73
2022/06/24 01:08:51;;;;;;;2.53;1.60;;;15.70;99.90;;;;;;5041797;28;20088;-74
2022/06/24 01:11:27;;;;;;;2.42;1.50;;;15.60;99.90;;;;;;5041269;28;20092;-74
2022/06/24 01:13:54;;;;;;;2.47;1.42;;;15.60;99.90;;;;;;5057888;28;20045;-74
2022/06/24 01:16:21;;;;;;;1.85;1.35;;;15.70;99.90;;;;;;5041431;28;20130;-74
2022/06/24 01:18:55;;;;;;;2.05;1.10;;;15.70;99.90;;;;;;5040601;28;20278;-74
2022/06/24 01:21:41;;;;;;;2.25;1.60;;;15.70;99.90;;;;;;5040259;28;20056;-74
2022/06/24 01:24:09;;;;;;;1.95;1.73;;;15.80;99.90;;;;;;5040993;28;20049;-74
2022/06/24 01:26:36;;;;;;;2.88;2.40;;;15.80;99.90;;;;;;5041217;28;20687;-74
2022/06/24 01:29:08;;;;;;;2.50;2.00;;;15.80;99.90;;;;;;5036121;28;20126;-74
2022/06/24 01:31:35;;;;;;;2.42;2.00;;;15.80;99.90;;;;;;5029735;28;20093;-74
2022/06/24 01:34:02;;;;;;;3.60;2.40;;;15.90;99.90;;;;;;5036149;28;20111;-74
2022/06/24 01:36:29;;;;;;;2.58;2.25;;;15.80;99.90;;;;;;5038568;28;20106;-74
2022/06/24 01:38:56;;;;;;;4.00;2.70;;;15.80;99.90;;;;;;5043213;28;20148;-74
2022/06/24 01:41:22;;;;;;;2.42;2.22;;;15.80;99.90;;;;;;5044137;28;20096;-74
2022/06/24 01:43:49;;;;;;;2.80;2.35;;;15.90;99.90;;;;;;5043998;28;20079;-74
2022/06/24 01:46:16;;;;;;;2.65;2.40;;;16.00;99.90;;;;;;5043390;28;20151;-74
2022/06/24 01:48:43;;;;;;;2.63;2.20;;;16.00;99.90;;;;;;5042934;28;20098;-74
2022/06/24 01:51:11;;;;;;;3.15;2.70;;;16.00;99.90;;;;;;5043395;28;20530;-74
2022/06/24 01:53:38;;;;;;;4.50;3.35;;;16.00;99.90;;;;;;5042482;28;20041;-74
2022/06/24 01:56:04;;;;;;;3.30;2.88;;;16.00;99.90;;;;;;5042617;28;20250;-74
2022/06/24 01:58:31;;;;;;;3.83;3.47;;;16.10;99.90;;;;;;5042632;28;20077;-73
2022/06/24 02:00:58;;;;;;;3.95;2.80;;;16.10;99.90;;;;;;5041867;28;20571;-74
2022/06/24 02:03:25;;;;;;;3.75;3.03;;;16.10;99.90;;;;;;5043693;28;20049;-74
2022/06/24 02:05:51;;;;;;;4.13;3.72;;;16.10;99.90;;;;;;5042421;28;20049;-73
2022/06/24 02:08:18;;;;;;;3.35;2.70;;;16.10;99.90;;;;;;5042174;28;20111;-74
2022/06/24 02:13:30;;;;;;;3.20;2.60;;;16.10;99.90;;;;;;5042341;28;20096;-74
2022/06/24 02:15:58;;;;;;;3.17;2.72;;;16.20;99.90;;;;;;5043399;28;20136;-74
2022/06/24 02:18:26;;;;;;;2.92;2.63;;;16.20;99.90;;;;;;5041978;28;20072;-74
2022/06/24 02:20:53;;;;;;;3.13;2.60;;;16.20;99.90;;;;;;5042667;28;20088;-74
2022/06/24 02:23:20;;;;;;;4.03;3.22;;;16.20;99.90;;;;;;5041950;28;20167;-74
2022/06/24 02:25:50;;;;;;;3.75;3.17;;;16.20;99.90;;;;;;5042328;28;20075;-74
2022/06/24 02:28:17;;;;;;;2.78;2.55;;;16.20;99.90;;;;;;5041969;28;20320;-74
2022/06/24 02:30:44;;;;;;;3.45;3.15;;;16.30;99.90;;;;;;5042097;28;20161;-74
2022/06/24 02:33:11;;;;;;;3.75;3.28;;;16.20;99.90;;;;;;5041838;28;20071;-74
2022/06/24 02:35:38;;;;;;;3.88;3.28;;;16.20;99.90;;;;;;5040825;28;20429;-74
2022/06/24 02:38:05;;;;;;;3.83;3.40;;;16.20;99.90;;;;;;5041593;28;20128;-74
2022/06/24 02:40:51;;;;;;;3.88;3.13;;;16.20;99.90;;;;;;5041507;28;20333;-74
2022/06/24 02:43:34;;;;;;;4.72;4.15;;;16.10;99.90;;;;;;5027685;28;20110;-74
2022/06/24 02:46:06;;;;;;;3.42;3.13;;;16.10;99.90;;;;;;5041183;28;20500;-74
2022/06/24 02:48:34;;;;;;;3.88;3.50;;;16.00;99.90;;;;;;5041394;28;20045;-73
2022/06/24 02:51:02;;;;;;;3.83;3.42;;;16.00;99.90;;;;;;5040361;28;20089;-74
2022/06/24 02:53:30;;;;;;;3.88;3.50;;;15.90;99.90;;;;;;5040725;28;20386;-74
2022/06/24 02:55:59;;;;;;;6.20;5.60;;;15.90;99.90;;;;;;5025130;28;20067;-74
2022/06/24 02:58:26;;;;;;;4.10;3.70;;;15.90;99.90;;;;;;5041999;28;20049;-74
2022/06/24 03:00:53;;;;;;;4.50;4.10;;;15.80;99.90;;;;;;5041187;28;20509;-74
2022/06/24 03:03:21;;;;;;;4.63;4.22;;;15.80;99.90;;;;;;5041450;28;20567;-74
2022/06/24 03:05:48;;;;;;;5.15;4.05;;;15.80;99.90;;;;;;5040896;28;20586;-74
2022/06/24 03:08:15;;;;;;;3.55;3.25;;;15.70;99.90;;;;;;5041638;28;20103;-73
2022/06/24 03:10:42;;;;;;;2.85;2.50;;;15.80;99.90;;;;;;5038120;28;20120;-74
2022/06/24 03:13:09;;;;;;;3.38;3.08;;;15.70;99.90;;;;;;5041649;28;20053;-74
2022/06/24 03:15:36;;;;;;;2.85;2.47;;;15.70;99.90;;;;;;5041093;28;20080;-74
2022/06/24 03:18:03;;;;;;;3.40;3.10;;;15.70;99.90;;;;;;5041013;28;20132;-74
2022/06/24 03:20:30;;;;;;;3.90;3.10;;;15.70;99.90;;;;;;5041864;28;20118;-74
2022/06/24 03:22:56;;;;;;;3.35;2.70;;;15.60;99.90;;;;;;5042532;28;20148;-74
2022/06/24 03:25:23;;;;;;;2.83;2.53;;;15.60;99.90;;;;;;5041236;28;20100;-74
2022/06/24 03:27:50;;;;;;;2.72;2.25;;;15.60;99.90;;;;;;5043200;28;20461;-74
2022/06/24 03:30:17;;;;;;;2.20;1.90;;;15.50;99.90;;;;;;5043329;28;20060;-74
2022/06/24 03:32:43;;;;;;;2.42;2.22;;;15.50;99.90;;;;;;5045837;28;20621;-74
2022/06/24 03:35:10;;;;;;;2.45;2.10;;;15.50;99.90;;;;;;5044784;28;20118;-74
2022/06/24 03:37:37;;;;;;;2.72;1.98;;;15.50;99.90;;;;;;5044845;28;20104;-73
2022/06/24 03:40:04;;;;;;;2.30;2.03;;;15.50;99.90;;;;;;5045146;28;20071;-74
2022/06/24 03:42:31;;;;;;;1.85;1.70;;;15.50;99.90;;;;;;5028554;28;20130;-74
2022/06/24 03:44:59;;;;;;;1.83;1.55;;;15.50;99.90;;;;;;5046049;28;20055;-73
2022/06/24 03:47:26;;;;;;;2.65;1.98;;;15.40;99.90;;;;;;5046094;28;20084;-73
2022/06/24 03:49:52;;;;;;;2.00;1.67;;;15.40;99.90;;;;;;5045375;28;20507;-74
2022/06/24 03:52:19;;;;;;;2.72;1.90;;;15.30;99.90;;;;;;5045591;28;20155;-74
2022/06/24 03:54:46;;;;;;;2.55;1.85;;;15.30;99.90;;;;;;5047571;28;20040;-73
2022/06/24 03:57:13;;;;;;;2.10;1.73;;;15.40;99.90;;;;;;5030486;28;20100;-74
2022/06/24 03:59:39;;;;;;;2.17;1.85;;;15.40;99.90;;;;;;5046154;28;20072;-73
2022/06/24 04:02:06;;;;;;;2.28;1.85;;;15.40;99.90;;;;;;5063144;28;20065;-74
2022/06/24 04:04:33;;;;;;;2.58;1.85;;;15.40;99.90;;;;;;5029274;28;20458;-73
2022/06/24 04:06:59;;;;;;;2.33;1.63;;;15.30;99.90;;;;;;5045926;28;20159;-74
2022/06/24 04:09:26;;;;;;;1.90;1.65;;;15.30;99.90;;;;;;5046127;28;20132;-73
2022/06/24 04:11:53;;;;;;;2.42;1.90;;;15.30;99.90;;;;;;5046897;28;20056;-73
2022/06/24 04:17:07;;;;;;;1.90;1.70;;;15.30;99.90;;;;;;5034995;28;20072;-73
2022/06/24 04:19:35;;;;;;;2.08;1.80;;;15.30;99.90;;;;;;5046957;28;20136;-73
2022/06/24 04:22:05;;;;;;;2.22;1.77;;;15.30;99.90;;;;;;5029123;28;20049;-73
2022/06/24 04:24:32;;;;;;;2.40;1.67;;;15.20;99.90;;;;;;5046005;28;20188;-73
2022/06/24 04:26:58;;;;;;;2.17;1.90;;;15.30;99.90;;;;;;5046031;28;20080;-74
2022/06/24 04:29:25;;;;;;;2.47;2.28;;;15.30;99.90;;;;;;5045489;28;20087;-74
2022/06/24 04:31:52;;;;;;;2.22;1.80;;;15.20;99.90;;;;;;5045625;28;20156;-73
2022/06/24 04:34:23;;;;;;;2.40;1.95;;;15.20;99.90;;;;;;5044936;28;20049;-73
2022/06/24 04:36:50;;;;;;;3.35;1.90;;;15.20;99.90;;;;;;5047006;28;20102;-73
2022/06/24 04:39:17;;;;;;;2.30;2.05;;;15.20;99.90;;;;;;5046378;28;20691;-74
2022/06/24 04:41:43;;;;;;;1.42;1.20;;;15.20;99.90;;;;;;5046807;28;20053;-74
2022/06/24 04:44:10;;;;;;;2.30;2.10;;;15.20;99.90;;;;;;5044948;28;20515;-73
2022/06/24 04:46:40;;;;;;;1.98;1.77;;;15.20;99.90;;;;;;5045355;28;20057;-74
2022/06/24 04:49:07;;;;;;;2.65;2.40;;;15.20;99.90;;;;;;5041763;28;20076;-73
2022/06/24 04:51:33;;;;;;;2.85;2.55;;;15.20;99.90;;;;;;5043402;28;20122;-73
2022/06/24 04:54:00;;;;;;;3.05;2.50;;;15.20;99.90;;;;;;5044366;28;20115;-73
2022/06/24 04:56:27;;;;;;;2.70;2.30;;;15.20;99.90;;;;;;5044557;28;20495;-74
2022/06/24 04:58:59;;;;;;;2.33;1.90;;;15.20;99.90;;;;;;5042930;28;20519;-74
2022/06/24 05:01:28;;;;;;;2.90;2.58;;;15.20;99.90;;;;;;5043554;28;20049;-73
2022/06/24 05:03:55;;;;;;;2.78;2.35;;;15.30;99.90;;;;;;5039198;28;20052;-73
2022/06/24 05:06:22;;;;;;;2.30;2.00;;;15.30;99.90;;;;;;5041012;28;20693;-73
2022/06/24 05:08:48;;;;;;;2.20;1.77;;;15.40;99.90;;;;;;5041124;28;20103;-74
2022/06/24 05:11:15;;;;;;;2.05;1.83;;;15.40;99.90;;;;;;5038072;28;20076;-74
2022/06/24 05:13:42;;;;;;;1.88;1.50;;;15.40;99.90;;;;;;5044129;28;20084;-73
2022/06/24 05:16:08;;;;;;;2.00;1.70;;;15.50;99.90;;;;;;5044340;28;20080;-73
2022/06/24 05:18:55;;;;;;;2.50;1.80;;;15.50;99.90;;;;;;5038644;28;20060;-73
2022/06/24 05:21:23;;;;;;;2.08;1.52;;;15.50;99.90;;;;;;5054196;28;20108;-73
2022/06/24 05:23:49;;;;;;;1.55;1.42;;;15.50;99.90;;;;;;5035751;28;20093;-73
2022/06/24 05:26:17;;;;;;;2.22;1.80;;;15.50;99.90;;;;;;5036531;28;20972;-73
2022/06/24 05:28:44;;;;;;;2.08;1.63;;;15.50;99.90;;;;;;5037029;28;20072;-73
2022/06/24 05:31:10;;;;;;;2.33;1.70;;;15.50;99.90;;;;;;5028326;28;20497;-74
2022/06/24 05:33:37;;;;;;;2.47;1.67;;;15.50;99.90;;;;;;5018616;28;20041;-73
2022/06/24 05:36:04;;;;;;;2.08;1.70;;;15.50;99.90;;;;;;5035213;28;20052;-73
2022/06/24 05:38:31;;;;;;;2.35;1.73;;;15.50;99.90;;;;;;5036177;28;20155;-73
2022/06/24 05:40:57;;;;;;;2.30;1.90;;;15.60;99.90;;;;;;5050775;28;20345;-74
2022/06/24 05:43:24;;;;;;;2.53;1.98;;;15.60;99.90;;;;;;5036532;28;20128;-74
2022/06/24 05:45:51;;;;;;;3.67;2.08;;;15.60;99.90;;;;;;5035099;28;20902;-74
2022/06/24 05:48:18;;;;;;;3.88;2.70;;;15.70;99.90;;;;;;5036793;28;20084;-72
2022/06/24 05:50:44;;;;;;;2.88;2.03;;;15.70;99.90;;;;;;5036427;28;20567;-73
2022/06/24 05:56:02;;;;;;;2.72;2.53;;;15.80;99.90;;;;;;5034690;28;20453;-73
2022/06/24 05:58:29;;;;;;;2.92;2.58;;;15.90;99.90;;;;;;5050448;28;20127;-73
2022/06/24 06:00:55;;;;;;;3.45;2.90;;;16.00;99.90;;;;;;5037071;28;20132;-73
2022/06/24 06:03:26;;;;;;;5.20;4.13;;;16.00;99.90;;;;;;5035317;28;20080;-73
2022/06/24 06:05:53;;;;;;;3.20;2.80;;;16.00;99.90;;;;;;5035873;28;20823;-73
2022/06/24 06:08:20;;;;;;;4.65;3.25;;;16.10;99.90;;;;;;5035102;28;20441;-74
2022/06/24 06:10:47;;;;;;;2.63;2.42;;;16.10;99.90;;;;;;5034584;28;20059;-75
2022/06/24 06:13:14;;;;;;;3.05;2.72;;;16.10;99.90;;;;;;5020137;28;20259;-75
2022/06/24 06:15:42;;;;;;;2.88;2.38;;;16.20;99.90;;;;;;5037818;28;20056;-74
2022/06/24 06:18:09;;;;;;;3.47;2.42;;;16.30;99.90;;;;;;5034608;28;20140;-75
2022/06/24 06:20:37;;;;;;;3.00;2.10;;;16.40;99.90;;;;;;5033693;28;20041;-75
2022/06/24 06:23:11;;;;;;;4.05;2.88;;;16.50;99.90;;;;;;5020156;28;20128;-73
2022/06/24 06:25:38;;;;;;;3.47;2.65;;;16.60;99.90;;;;;;5033626;28;20057;-74
2022/06/24 06:28:05;;;;;;;2.97;2.40;;;16.60;99.90;;;;;;5026756;28;20080;-74
2022/06/24 06:30:32;;;;;;;3.03;2.28;;;16.60;99.90;;;;;;5035623;28;20103;-74
2022/06/24 06:32:59;;;;;;;2.70;2.50;;;16.70;99.90;;;;;;5034994;28;20497;-74
2022/06/24 06:35:26;;;;;;;5.05;3.22;;;16.70;99.90;;;;;;5035733;28;20145;-74
2022/06/24 06:37:53;;;;;;;3.67;2.63;;;16.70;99.90;;;;;;5036264;28;20381;-74
2022/06/24 06:40:19;;;;;;;3.17;2.50;;;16.80;99.90;;;;;;5037704;28;20162;-74
2022/06/24 06:42:46;;;;;;;2.92;2.13;;;16.90;99.90;;;;;;5036127;28;20066;-74
2022/06/24 06:45:13;;;;;;;3.00;2.60;;;17.00;99.90;;;;;;5033626;28;20559;-74
2022/06/24 06:47:39;;;;;;;2.15;1.70;;;17.10;99.90;;;;;;5035810;28;20149;-74
2022/06/24 06:50:07;;;;;;;3.13;2.05;;;17.20;99.90;;;;;;5036196;28;20092;-74
2022/06/24 06:52:38;;;;;;;4.28;2.50;;;17.40;99.90;;;;;;5035218;28;20053;-74
2022/06/24 06:55:05;;;;;;;2.50;1.80;;;17.50;99.90;;;;;;5035773;28;20098;-74
2022/06/24 06:57:32;;;;;;;2.97;1.98;;;17.60;99.90;;;;;;5035258;28;20060;-74
2022/06/24 06:59:59;;;;;;;2.47;1.80;;;17.70;99.90;;;;;;5036294;28;20348;-74
2022/06/24 07:02:26;;;;;;;3.53;1.80;;;17.70;99.90;;;;;;5036049;28;20053;-74
2022/06/24 07:04:53;;;;;;;2.58;1.98;;;17.80;99.90;;;;;;5054226;28;20053;-75
2022/06/24 07:07:20;;;;;;;2.65;1.90;;;17.80;99.90;;;;;;5038156;28;20155;-75
2022/06/24 07:09:46;;;;;;;2.78;1.88;;;17.90;99.90;;;;;;5022128;28;20041;-75
2022/06/24 07:12:13;;;;;;;2.88;1.95;;;18.00;99.90;;;;;;5038472;28;20057;-74
2022/06/24 07:14:41;;;;;;;3.33;2.25;;;18.00;99.90;;;;;;5038679;28;20140;-75
2022/06/24 07:17:13;;;;;;;3.17;2.13;;;18.10;99.90;;;;;;5039465;28;20231;-75
2022/06/24 07:19:40;;;;;;;2.40;1.83;;;18.00;99.90;;;;;;5040509;28;20156;-75
2022/06/24 07:22:07;;;;;;;1.40;1.20;;;17.90;99.90;;;;;;5021794;28;20106;-73
2022/06/24 07:24:34;;;;;;;2.28;1.70;;;18.00;99.90;;;;;;5037543;28;20057;-73
2022/06/24 07:27:05;;;;;;;1.88;1.52;;;18.00;99.90;;;;;;5019367;28;20059;-73
2022/06/24 07:29:35;;;;;;;2.50;1.42;;;18.00;99.90;;;;;;5034787;28;20095;-74
2022/06/24 07:32:03;;;;;;;2.03;1.67;;;18.10;99.90;;;;;;5039915;28;20172;-73
2022/06/24 07:34:31;;;;;;;1.80;1.30;;;18.10;99.90;;;;;;5021993;28;20067;-74
2022/06/24 07:36:58;;;;;;;1.88;1.30;;;18.20;99.90;;;;;;5039618;28;20057;-74
2022/06/24 07:39:25;;;;;;;2.88;1.20;;;18.10;99.90;;;;;;5040554;28;21001;-75
2022/06/24 07:41:53;;;;;;;2.83;1.80;;;18.20;99.90;;;;;;5039759;28;20045;-74
2022/06/24 07:44:20;;;;;;;2.28;1.70;;;18.20;99.90;;;;;;5038322;28;20045;-74
2022/06/24 07:46:47;;;;;;;3.25;1.80;;;18.20;99.90;;;;;;5039829;28;20575;-74
2022/06/24 07:49:14;;;;;;;2.15;1.75;;;18.20;99.90;;;;;;5037842;28;20115;-74
2022/06/24 07:51:41;;;;;;;2.05;1.73;;;18.30;99.90;;;;;;5038139;28;20140;-74
2022/06/24 07:54:08;;;;;;;1.27;1.15;;;18.30;99.90;;;;;;5039429;28;20057;-74
2022/06/24 07:59:20;;;;;;;3.03;1.73;;;18.50;99.90;;;;;;5039328;28;20167;-74
2022/06/24 08:01:47;;;;;;;2.35;1.63;;;18.60;99.90;;;;;;5039772;28;20447;-74
2022/06/24 08:04:14;;;;;;;2.70;1.73;;;18.60;99.90;;;;;;5037529;28;20049;-74
2022/06/24 08:06:45;;;;;;;2.25;1.20;;;18.60;99.90;;;;;;5039116;28;20049;-73
2022/06/24 08:09:14;;;;;;;2.85;1.70;;;18.70;99.90;;;;;;5024063;28;20076;-74
2022/06/24 08:11:41;;;;;;;1.85;1.35;;;18.80;99.90;;;;;;5038543;28;20080;-74
2022/06/24 08:14:08;;;;;;;2.17;1.55;;;18.80;99.90;;;;;;5040247;28;20148;-73
2022/06/24 08:16:35;;;;;;;3.95;2.13;;;18.90;99.90;;;;;;5039808;28;20464;-74
2022/06/24 08:19:02;;;;;;;2.88;1.67;;;19.00;99.90;;;;;;5039570;28;20053;-75
2022/06/24 08:21:29;;;;;;;2.17;1.70;;;19.10;99.90;;;;;;5038626;28;20091;-75
2022/06/24 08:23:55;;;;;;;3.13;1.90;;;19.10;99.90;;;;;;5040166;28;20710;-75
2022/06/24 08:26:22;;;;;;;2.38;1.50;;;19.30;99.90;;;;;;5039089;28;20130;-74
2022/06/24 08:28:49;;;;;;;1.48;1.17;;;19.40;99.90;;;;;;5038592;28;20164;-75
2022/06/24 08:31:16;;;;;;;1.40;1.10;;;19.60;99.90;;;;;;5047647;28;20578;-74
2022/06/24 08:33:42;;;;;;;2.33;1.63;;;19.70;99.90;;;;;;5037831;28;20136;-74
2022/06/24 08:36:09;;;;;;;2.53;1.48;;;19.70;99.90;;;;;;5038813;28;20110;-74
2022/06/24 08:38:37;;;;;;;2.17;1.40;;;19.70;99.90;;;;;;5036821;28;20147;-74
2022/06/24 08:41:03;;;;;;;1.20;1.10;;;19.70;99.90;;;;;;5054593;28;20562;-75
2022/06/24 08:43:31;;;;;;;1.90;1.38;;;19.80;99.90;;;;;;5021544;28;20041;-74
2022/06/24 08:45:59;;;;;;;2.60;1.40;;;19.90;99.90;;;;;;5036763;28;20147;-75
2022/06/24 08:48:27;;;;;;;2.13;1.40;;;20.00;99.90;;;;;;5036558;28;20052;-75
2022/06/24 08:50:54;;;;;;;1.77;1.25;;;20.10;99.90;;;;;;5037942;28;20099;-73
2022/06/24 08:53:21;;;;;;;1.77;0.95;;;20.40;99.90;;;;;;5039017;28;20478;-74
2022/06/24 08:55:50;;;;;;;2.13;0.93;;;20.70;99.90;;;;;;5037363;28;20151;-73
2022/06/24 08:58:18;;;;;;;1.20;0.95;;;20.90;99.90;;;;;;5037462;28;20084;-74
2022/06/24 09:00:44;;;;;;;1.50;1.00;;;21.10;99.90;;;;;;5036155;28;20257;-76
2022/06/24 09:03:12;;;;;;;1.55;0.80;;;21.20;99.90;;;;;;5032057;28;20288;-76
2022/06/24 09:05:40;;;;;;;1.42;0.85;;;21.30;99.90;;;;;;5036663;28;20508;-75
2022/06/24 09:08:14;;;;;;;1.30;0.93;;;21.40;99.90;;;;;;5035450;28;20101;-75
2022/06/24 09:10:43;;;;;;;2.28;1.08;;;21.40;99.90;;;;;;5036757;28;20120;-75
2022/06/24 09:13:21;;;;;;;1.10;0.70;;;21.20;99.90;;;;;;5021040;28;20048;-75
2022/06/24 09:15:52;;;;;;;1.30;1.05;;;21.30;99.90;;;;;;5035554;28;20483;-76
2022/06/24 09:18:23;;;;;;;1.88;0.95;;;21.40;99.90;;;;;;5037540;28;20144;-75
2022/06/24 09:20:51;;;;;;;1.58;1.10;;;21.60;99.90;;;;;;5031986;28;21019;-76
2022/06/24 09:23:18;;;;;;;1.50;1.08;;;21.60;99.90;;;;;;5036543;28;20080;-75
2022/06/24 09:25:52;;;;;;;1.65;0.93;;;21.60;99.90;;;;;;5038229;28;20041;-75
2022/06/24 09:28:21;;;;;;;1.38;1.00;;;21.50;99.90;;;;;;5004097;28;20058;-75
2022/06/24 09:30:47;;;;;;;1.42;0.98;;;21.40;99.90;;;;;;5053420;28;20243;-74
2022/06/24 09:33:16;;;;;;;1.25;0.80;;;21.30;99.90;;;;;;5056250;28;20088;-75
2022/06/24 09:36:05;;;;;;;3.13;1.10;;;21.40;99.90;;;;;;5036180;28;20057;-75
2022/06/24 09:38:31;;;;;;;1.23;1.05;;;21.60;99.90;;;;;;5041163;28;20527;-75
2022/06/24 09:41:04;;;;;;;0.80;0.80;;;21.80;99.90;;;;;;5024266;28;20060;-76
2022/06/24 09:43:31;;;;;;;1.75;0.80;;;22.10;99.90;;;;;;5038063;28;20115;-75
2022/06/24 09:45:58;;;;;;;0.85;0.57;;;22.20;99.90;;;;;;5022589;28;20523;-76
2022/06/24 09:48:33;;;;;;;1.48;0.68;;;22.40;99.90;;;;;;5039274;28;20057;-76
2022/06/24 09:51:01;;;;;;;1.20;0.70;;;22.60;99.90;;;;;;5035494;28;20414;-74
2022/06/24 09:53:32;;;;;;;1.45;0.75;;;22.60;99.90;;;;;;5043384;28;20060;-74
2022/06/24 09:56:00;;;;;;;1.15;0.73;;;22.60;99.90;;;;;;5043900;28;20080;-74
2022/06/24 09:58:27;;;;;;;1.17;0.55;;;22.60;99.90;;;;;;5041409;28;20069;-74
2022/06/24 10:00:53;;;;;;;1.77;0.73;;;22.70;99.90;;;;;;5043573;28;20470;-74
2022/06/24 10:03:21;;;;;;;1.35;0.90;;;22.60;99.90;;;;;;5043039;28;20088;-74
2022/06/24 10:05:50;;;;;;;0.68;0.60;;;22.70;99.90;;;;;;5042018;28;20061;-75
2022/06/24 10:08:21;;;;;;;1.27;0.90;;;22.70;99.90;;;;;;5041215;28;20281;-74
2022/06/24 10:10:50;;;;;;;1.33;0.80;;;22.90;99.90;;;;;;5041417;28;20083;-74
2022/06/24 10:13:25;;;;;;;1.20;0.80;;;23.10;99.90;;;;;;5042679;28;20387;-75
2022/06/24 10:16:16;;;;;;;0.88;0.82;;;22.90;99.90;;;;;;5041367;28;20514;-75
2022/06/24 10:18:43;;;;;;;1.70;0.95;;;22.80;99.90;;;;;;5040440;28;20045;-74
2022/06/24 10:21:11;;;;;;;1.23;0.80;;;22.70;99.90;;;;;;5042461;28;20121;-74
2022/06/24 10:23:47;;;;;;;2.78;1.02;;;22.50;99.90;;;;;;5040175;28;20171;-74
2022/06/24 10:26:24;;;;;;;1.77;1.15;;;22.40;99.90;;;;;;5041479;28;20156;-74
2022/06/24 10:29:03;;;;;;;2.10;1.02;;;22.40;99.90;;;;;;5038598;28;20076;-75
2022/06/24 10:31:42;;;;;;;1.67;0.95;;;22.40;99.90;;;;;;5038888;28;20115;-74
2022/06/24 10:34:09;;;;;;;1.13;0.93;;;22.40;99.90;;;;;;5051965;28;20113;-74
2022/06/24 10:36:36;;;;;;;1.98;0.93;;;22.50;99.90;;;;;;5040230;28;20443;-74
2022/06/24 10:39:11;;;;;;;1.05;0.80;;;22.70;99.90;;;;;;5036070;28;20156;-74
2022/06/24 10:41:38;;;;;;;1.55;0.70;;;23.10;99.90;;;;;;5029902;28;20053;-75
2022/06/24 10:44:30;;;;;;;1.15;0.70;;;23.20;99.90;;;;;;5053809;28;20167;-75
2022/06/24 10:47:10;;;;;;;1.67;0.63;;;23.10;99.90;;;;;;5035179;28;20088;-75
2022/06/24 10:49:59;;;;;;;1.55;0.80;;;22.80;99.90;;;;;;5032653;28;20053;-76
2022/06/24 10:52:48;;;;;;;0.65;0.60;;;22.60;99.90;;;;;;5036617;28;20056;-75
2022/06/24 10:55:18;;;;;;;1.00;0.60;;;22.30;99.90;;;;;;5052113;28;20057;-75
2022/06/24 10:57:49;;;;;;;1.38;0.70;;;22.20;99.90;;;;;;5039203;28;20373;-75
2022/06/24 11:00:17;;;;;;;1.13;0.75;;;22.30;99.90;;;;;;5038466;28;20145;-75
2022/06/24 11:02:44;;;;;;;0.82;0.80;;;22.40;99.90;;;;;;5034036;28;20049;-75
2022/06/24 11:05:24;;;;;;;1.60;0.93;;;22.50;99.90;;;;;;5038822;28;20104;-75
2022/06/24 11:07:51;;;;;;;1.27;0.90;;;22.60;99.90;;;;;;5034871;28;20150;-75
2022/06/24 11:10:32;;;;;;;3.72;1.25;;;22.50;99.90;;;;;;5020838;28;20103;-75
2022/06/24 11:12:59;;;;;;;2.30;0.70;;;22.30;99.90;;;;;;5034500;28;20157;-85
2022/06/24 11:15:43;;;;;;;1.00;0.85;;;22.50;99.90;;;;;;5041501;28;20091;-76
2022/06/24 11:18:26;;;;;;;1.08;0.60;;;22.80;99.90;;;;;;5048095;28;20064;-76
2022/06/24 11:20:55;;;;;;;0.85;0.65;;;22.90;99.90;;;;;;5033837;28;20099;-76
2022/06/24 11:23:24;;;;;;;1.00;0.70;;;23.00;99.90;;;;;;5033994;28;20085;-76
2022/06/24 11:25:52;;;;;;;1.08;0.73;;;23.10;99.90;;;;;;5015811;28;20440;-75
2022/06/24 11:28:32;;;;;;;1.08;0.60;;;23.10;99.90;;;;;;5023727;28;20575;-74
2022/06/24 11:31:22;;;;;;;0.82;0.68;;;23.20;99.90;;;;;;5046595;28;20456;-75
2022/06/24 11:34:04;;;;;;;0.55;0.50;;;23.60;99.90;;;;;;5034399;28;20330;-75
2022/06/24 11:36:34;;;;;;;0.73;0.70;;;24.10;99.90;;;;;;5036269;28;20135;-75
2022/06/24 11:39:05;;;;;;;1.40;0.82;;;24.30;99.90;;;;;;5040651;28;20103;-75
2022/06/24 11:41:38;;;;;;;0.63;0.63;;;24.20;99.00;;;;;;5037407;28;20123;-75
2022/06/24 11:44:16;;;;;;;1.27;0.90;;;24.10;99.00;;;;;;5035966;28;20049;-76
2022/06/24 11:46:50;;;;;;;0.50;0.47;;;24.20;99.00;;;;;;5036828;28;20434;-75
2022/06/24 11:49:17;;;;;;;1.08;0.80;;;24.30;98.70;;;;;;5033637;28;20063;-75
2022/06/24 11:51:45;;;;;;;1.30;0.68;;;24.40;97.70;;;;;;5039168;28;20077;-75
2022/06/24 11:54:11;;;;;;;0.88;0.88;;;24.50;97.70;;;;;;5038113;28;20060;-74
2022/06/24 11:56:39;;;;;;;0.50;0.50;;;24.60;97.40;;;;;;5022926;28;20132;-74
2022/06/24 11:59:06;;;;;;;0.77;0.77;;;24.90;96.50;;;;;;5039705;28;20091;-76
2022/06/24 12:01:33;;;;;;;1.05;0.80;;;24.80;96.30;;;;;;5040748;28;20444;-76
2022/06/24 12:04:01;;;;;;;0.90;0.65;;;24.50;97.10;;;;;;5038337;28;20140;-76
2022/06/24 12:06:28;;;;;;;1.17;0.77;;;24.50;96.90;;;;;;5040263;28;20186;-76
2022/06/24 12:08:55;;;;;;;0.80;0.60;;;24.60;96.70;;;;;;5038841;28;20530;-76
2022/06/24 12:11:23;;;;;;;0.90;0.82;;;24.70;96.70;;;;;;5022922;28;20080;-76
2022/06/24 12:14:02;;;;;;;0.88;0.68;;;24.90;96.70;;;;;;5022923;28;20136;-76
2022/06/24 12:17:21;;;;;;;0.90;0.70;;;25.10;96.50;;;;;;5039503;28;20769;-77
2022/06/24 12:20:02;;;;;;;0.70;0.70;;;25.00;96.40;;;;;;4995360;28;20049;-76
2022/06/24 12:22:29;;;;;;;0.70;0.60;;;25.30;95.90;;;;;;5039118;28;20066;-75
2022/06/24 12:25:04;;;;;;;0.73;0.73;;;25.50;95.50;;;;;;5039417;28;20057;-76
2022/06/24 12:27:40;;;;;;;0.82;0.70;;;25.50;95.10;;;;;;5036809;28;20084;-76
2022/06/24 12:30:08;;;;;;;1.05;0.80;;;25.60;95.20;;;;;;5038670;28;20056;-76
2022/06/24 12:32:49;;;;;;;0.70;0.70;;;26.20;95.20;;;;;;5039118;28;20127;-76
2022/06/24 12:35:29;;;;;;;1.25;0.93;;;26.80;94.80;;;;;;5040883;28;20053;-74
2022/06/24 12:37:56;;;;;;;0.60;0.60;;;26.80;94.40;;;;;;5028696;28;20071;-74
2022/06/24 12:40:23;;;;;;;0.63;0.63;;;26.70;93.90;;;;;;5036697;28;20080;-74
2022/06/24 12:43:09;;;;;;;0.60;0.60;;;26.20;94.30;;;;;;5021904;28;20052;-74
2022/06/24 12:45:36;;;;;;;0.55;0.50;;;25.60;94.90;;;;;;5036425;28;20128;-74
2022/06/24 12:51:06;;;;;;;1.38;0.70;;;24.90;95.40;;;;;;5039859;28;20136;-74
2022/06/24 12:53:33;;;;;;;0.93;0.93;;;24.50;96.10;;;;;;5036453;28;20077;-74
2022/06/24 12:55:59;;;;;;;0.70;0.60;;;24.00;95.40;;;;;;5037498;28;20043;-74
2022/06/24 12:58:26;;;;;;;1.45;0.60;;;23.60;96.30;;;;;;5018529;28;20195;-74
2022/06/24 13:00:53;;;;;;;0.65;0.50;;;23.40;97.00;;;;;;5035313;28;20076;-74
2022/06/24 13:03:20;;;;;;;0.98;0.50;;;23.10;97.00;;;;;;5022151;28;20057;-74
2022/06/24 13:05:47;;;;;;;0.65;0.57;;;22.90;97.10;;;;;;5037313;28;20080;-74
2022/06/24 13:08:14;;;;;;;0.73;0.68;;;22.80;97.80;;;;;;5037792;28;20854;-74
2022/06/24 13:10:41;;;;;;;1.13;0.70;;;22.70;97.20;;;;;;5039619;28;20076;-74
2022/06/24 13:13:08;;;;;;;0.90;0.80;;;22.70;97.30;;;;;;5038193;28;20053;-74